sensor_id;sensor_type;location;lat;lon;timestamp;temperature;humidity
59469;DHT22;45277;52.768;18.262;2022-07-29T00:00:38;13.10;99.90
59469;DHT22;45277;52.768;18.262;2022-07-29T00:02:11;13.00;99.90
59469;DHT22;45277;52.768;18.262;2022-07-29T00:03:42;13.00;99.90
59469;DHT22;45277;52.768;18.262;2022-07-29T00:05:13;13.00;99.90
59469;DHT22;45277;52.768;18.262;2022-07-29T00:06:45;12.90;99.90
59469;DHT22;45277;52.768;18.262;2022-07-29T00:08:18;12.90;99.90
59469;DHT22;45277;52.768;18.262;2022-07-29T00:09:51;12.90;99.90
59469;DHT22;45277;52.768;18.262;2022-07-29T00:11:23;12.90;99.90
59469;DHT22;45277;52.768;18.262;2022-07-29T00:12:54;12.90;99.90
59469;DHT22;45277;52.768;18.262;2022-07-29T00:14:28;12.80;99.90
59469;DHT22;45277;52.768;18.262;2022-07-29T00:16:00;12.80;99.90
59469;DHT22;45277;52.768;18.262;2022-07-29T00:17:31;12.80;99.90
59469;DHT22;45277;52.768;18.262;2022-07-29T00:19:03;12.80;99.90
59469;DHT22;45277;52.768;18.262;2022-07-29T00:20:34;12.80;99.90
59469;DHT22;45277;52.768;18.262;2022-07-29T00:22:06;12.80;99.90
59469;DHT22;45277;52.768;18.262;2022-07-29T00:23:37;12.80;99.90
59469;DHT22;45277;52.768;18.262;2022-07-29T00:25:08;12.80;99.90
59469;DHT22;45277;52.768;18.262;2022-07-29T00:26:40;12.80;99.90
59469;DHT22;45277;52.768;18.262;2022-07-29T00:28:12;12.80;99.90
59469;DHT22;45277;52.768;18.262;2022-07-29T00:29:50;12.70;99.90
59469;DHT22;45277;52.768;18.262;2022-07-29T00:31:21;12.70;99.90
59469;DHT22;45277;52.768;18.262;2022-07-29T00:32:52;12.70;99.90
59469;DHT22;45277;52.768;18.262;2022-07-29T00:34:31;12.70;99.90
59469;DHT22;45277;52.768;18.262;2022-07-29T00:36:21;12.70;99.90
59469;DHT22;45277;52.768;18.262;2022-07-29T00:37:53;12.60;99.90
59469;DHT22;45277;52.768;18.262;2022-07-29T00:39:25;12.60;99.90
59469;DHT22;45277;52.768;18.262;2022-07-29T00:40:56;12.60;99.90
59469;DHT22;45277;52.768;18.262;2022-07-29T00:42:28;12.60;99.90
59469;DHT22;45277;52.768;18.262;2022-07-29T00:43:59;12.60;99.90
59469;DHT22;45277;52.768;18.262;2022-07-29T00:45:31;12.50;99.90
59469;DHT22;45277;52.768;18.262;2022-07-29T00:47:02;12.50;99.90
59469;DHT22;45277;52.768;18.262;2022-07-29T00:48:34;12.50;99.90
59469;DHT22;45277;52.768;18.262;2022-07-29T00:50:09;12.50;99.90
59469;DHT22;45277;52.768;18.262;2022-07-29T00:51:41;12.50;99.90
59469;DHT22;45277;52.768;18.262;2022-07-29T00:53:13;12.50;99.90
59469;DHT22;45277;52.768;18.262;2022-07-29T00:54:44;12.50;99.90
59469;DHT22;45277;52.768;18.262;2022-07-29T00:56:23;12.50;99.90
59469;DHT22;45277;52.768;18.262;2022-07-29T00:57:57;12.50;99.90
59469;DHT22;45277;52.768;18.262;2022-07-29T00:59:30;12.60;99.90
59469;DHT22;45277;52.768;18.262;2022-07-29T01:01:01;12.50;99.90
59469;DHT22;45277;52.768;18.262;2022-07-29T01:02:33;12.50;99.90
59469;DHT22;45277;52.768;18.262;2022-07-29T01:04:12;12.50;99.90
59469;DHT22;45277;52.768;18.262;2022-07-29T01:05:45;12.50;99.90
59469;DHT22;45277;52.768;18.262;2022-07-29T01:07:19;12.50;99.90
59469;DHT22;45277;52.768;18.262;2022-07-29T01:08:51;12.40;99.90
59469;DHT22;45277;52.768;18.262;2022-07-29T01:10:25;12.30;99.90
59469;DHT22;45277;52.768;18.262;2022-07-29T01:11:57;12.30;99.90
59469;DHT22;45277;52.768;18.262;2022-07-29T01:13:30;12.30;99.90
59469;DHT22;45277;52.768;18.262;2022-07-29T01:15:03;12.30;99.90
59469;DHT22;45277;52.768;18.262;2022-07-29T01:17:00;12.40;99.90
59469;DHT22;45277;52.768;18.262;2022-07-29T01:18:44;12.40;99.90
59469;DHT22;45277;52.768;18.262;2022-07-29T01:26:52;12.40;99.90
59469;DHT22;45277;52.768;18.262;2022-07-29T01:28:52;12.40;99.90
59469;DHT22;45277;52.768;18.262;2022-07-29T01:30:27;12.50;99.90
59469;DHT22;45277;52.768;18.262;2022-07-29T01:32:11;12.40;99.90
59469;DHT22;45277;52.768;18.262;2022-07-29T01:33:50;12.40;99.90
59469;DHT22;45277;52.768;18.262;2022-07-29T01:35:33;12.40;99.90
59469;DHT22;45277;52.768;18.262;2022-07-29T01:37:15;12.40;99.90
59469;DHT22;45277;52.768;18.262;2022-07-29T01:38:57;12.40;99.90
59469;DHT22;45277;52.768;18.262;2022-07-29T01:40:52;12.40;99.90
59469;DHT22;45277;52.768;18.262;2022-07-29T01:42:34;12.30;99.90
59469;DHT22;45277;52.768;18.262;2022-07-29T01:44:27;12.30;99.90
59469;DHT22;45277;52.768;18.262;2022-07-29T01:46:05;12.20;99.90
59469;DHT22;45277;52.768;18.262;2022-07-29T01:49:36;12.20;99.90
59469;DHT22;45277;52.768;18.262;2022-07-29T01:51:21;12.20;99.90
59469;DHT22;45277;52.768;18.262;2022-07-29T01:53:04;12.20;99.90
59469;DHT22;45277;52.768;18.262;2022-07-29T01:54:39;12.20;99.90
59469;DHT22;45277;52.768;18.262;2022-07-29T01:56:18;12.10;99.90
59469;DHT22;45277;52.768;18.262;2022-07-29T01:57:50;12.00;99.90
59469;DHT22;45277;52.768;18.262;2022-07-29T01:59:30;11.90;99.90
59469;DHT22;45277;52.768;18.262;2022-07-29T02:01:04;11.90;99.90
59469;DHT22;45277;52.768;18.262;2022-07-29T02:02:39;11.80;99.90
59469;DHT22;45277;52.768;18.262;2022-07-29T02:04:12;11.80;99.90
59469;DHT22;45277;52.768;18.262;2022-07-29T02:05:45;11.80;99.90
59469;DHT22;45277;52.768;18.262;2022-07-29T02:07:21;11.80;99.90
59469;DHT22;45277;52.768;18.262;2022-07-29T02:08:52;11.70;99.90
59469;DHT22;45277;52.768;18.262;2022-07-29T02:10:27;11.80;99.90
59469;DHT22;45277;52.768;18.262;2022-07-29T02:12:00;11.70;99.90
59469;DHT22;45277;52.768;18.262;2022-07-29T02:13:43;11.80;99.90
59469;DHT22;45277;52.768;18.262;2022-07-29T02:15:16;11.80;99.90
59469;DHT22;45277;52.768;18.262;2022-07-29T02:16:56;11.80;99.90
59469;DHT22;45277;52.768;18.262;2022-07-29T02:18:30;11.80;99.90
59469;DHT22;45277;52.768;18.262;2022-07-29T02:20:03;11.70;99.90
59469;DHT22;45277;52.768;18.262;2022-07-29T02:21:36;11.70;99.90
59469;DHT22;45277;52.768;18.262;2022-07-29T02:23:09;11.70;99.90
59469;DHT22;45277;52.768;18.262;2022-07-29T02:24:42;11.70;99.90
59469;DHT22;45277;52.768;18.262;2022-07-29T02:26:15;11.60;99.90
59469;DHT22;45277;52.768;18.262;2022-07-29T02:27:50;11.60;99.90
59469;DHT22;45277;52.768;18.262;2022-07-29T02:29:25;11.60;99.90
59469;DHT22;45277;52.768;18.262;2022-07-29T02:31:00;11.60;99.90
59469;DHT22;45277;52.768;18.262;2022-07-29T02:32:34;11.50;99.90
59469;DHT22;45277;52.768;18.262;2022-07-29T02:34:08;11.50;99.90
59469;DHT22;45277;52.768;18.262;2022-07-29T02:35:41;11.50;99.90
59469;DHT22;45277;52.768;18.262;2022-07-29T02:37:16;11.40;99.90
59469;DHT22;45277;52.768;18.262;2022-07-29T02:38:48;11.40;99.90
59469;DHT22;45277;52.768;18.262;2022-07-29T02:40:24;11.40;99.90
59469;DHT22;45277;52.768;18.262;2022-07-29T02:42:03;11.40;99.90
59469;DHT22;45277;52.768;18.262;2022-07-29T02:43:36;11.30;99.90
59469;DHT22;45277;52.768;18.262;2022-07-29T02:45:10;11.30;99.90
59469;DHT22;45277;52.768;18.262;2022-07-29T02:48:37;11.30;99.90
59469;DHT22;45277;52.768;18.262;2022-07-29T02:50:11;11.30;99.90
59469;DHT22;45277;52.768;18.262;2022-07-29T02:51:56;11.20;99.90
59469;DHT22;45277;52.768;18.262;2022-07-29T02:53:30;11.20;99.90
59469;DHT22;45277;52.768;18.262;2022-07-29T02:57:22;11.30;99.90
59469;DHT22;45277;52.768;18.262;2022-07-29T02:58:59;11.30;99.90
59469;DHT22;45277;52.768;18.262;2022-07-29T03:00:35;11.30;99.90
59469;DHT22;45277;52.768;18.262;2022-07-29T03:02:08;11.30;99.90
59469;DHT22;45277;52.768;18.262;2022-07-29T03:03:43;11.30;99.90
59469;DHT22;45277;52.768;18.262;2022-07-29T03:05:18;11.30;99.90
59469;DHT22;45277;52.768;18.262;2022-07-29T03:06:51;11.40;99.90
59469;DHT22;45277;52.768;18.262;2022-07-29T03:08:24;11.30;99.90
59469;DHT22;45277;52.768;18.262;2022-07-29T03:09:57;11.30;99.90
59469;DHT22;45277;52.768;18.262;2022-07-29T03:11:30;11.20;99.90
59469;DHT22;45277;52.768;18.262;2022-07-29T03:13:03;11.20;99.90
59469;DHT22;45277;52.768;18.262;2022-07-29T03:14:43;11.10;99.90
59469;DHT22;45277;52.768;18.262;2022-07-29T03:16:21;11.20;99.90
59469;DHT22;45277;52.768;18.262;2022-07-29T03:17:55;11.20;99.90
59469;DHT22;45277;52.768;18.262;2022-07-29T03:19:27;11.30;99.90
59469;DHT22;45277;52.768;18.262;2022-07-29T03:20:59;11.40;99.90
59469;DHT22;45277;52.768;18.262;2022-07-29T03:22:41;11.50;99.90
59469;DHT22;45277;52.768;18.262;2022-07-29T03:24:32;11.50;99.90
59469;DHT22;45277;52.768;18.262;2022-07-29T03:26:06;11.60;99.90
59469;DHT22;45277;52.768;18.262;2022-07-29T03:27:37;11.60;99.90
59469;DHT22;45277;52.768;18.262;2022-07-29T03:29:08;11.60;99.90
59469;DHT22;45277;52.768;18.262;2022-07-29T03:30:39;11.70;99.90
59469;DHT22;45277;52.768;18.262;2022-07-29T03:32:11;11.70;99.90
59469;DHT22;45277;52.768;18.262;2022-07-29T03:33:42;11.70;99.90
59469;DHT22;45277;52.768;18.262;2022-07-29T03:35:14;11.70;99.90
59469;DHT22;45277;52.768;18.262;2022-07-29T03:36:54;11.70;99.90
59469;DHT22;45277;52.768;18.262;2022-07-29T03:38:33;11.80;99.90
59469;DHT22;45277;52.768;18.262;2022-07-29T03:40:08;11.80;99.90
59469;DHT22;45277;52.768;18.262;2022-07-29T03:41:41;11.80;99.90
59469;DHT22;45277;52.768;18.262;2022-07-29T03:43:15;11.80;99.90
59469;DHT22;45277;52.768;18.262;2022-07-29T03:44:50;11.80;99.90
59469;DHT22;45277;52.768;18.262;2022-07-29T03:46:31;11.80;99.90
59469;DHT22;45277;52.768;18.262;2022-07-29T03:48:08;11.90;99.90
59469;DHT22;45277;52.768;18.262;2022-07-29T03:49:49;11.90;99.90
59469;DHT22;45277;52.768;18.262;2022-07-29T03:51:25;11.90;99.90
59469;DHT22;45277;52.768;18.262;2022-07-29T03:53:03;11.90;99.90
59469;DHT22;45277;52.768;18.262;2022-07-29T03:54:35;11.90;99.90
59469;DHT22;45277;52.768;18.262;2022-07-29T03:56:06;12.00;99.90
59469;DHT22;45277;52.768;18.262;2022-07-29T03:57:41;12.00;99.90
59469;DHT22;45277;52.768;18.262;2022-07-29T03:59:16;12.00;99.90
59469;DHT22;45277;52.768;18.262;2022-07-29T04:00:50;12.10;99.90
59469;DHT22;45277;52.768;18.262;2022-07-29T04:02:21;12.10;99.90
59469;DHT22;45277;52.768;18.262;2022-07-29T04:03:54;12.20;99.90
59469;DHT22;45277;52.768;18.262;2022-07-29T04:05:26;12.20;99.90
59469;DHT22;45277;52.768;18.262;2022-07-29T04:06:57;12.30;99.90
59469;DHT22;45277;52.768;18.262;2022-07-29T04:08:29;12.40;99.90
59469;DHT22;45277;52.768;18.262;2022-07-29T04:10:00;12.40;99.90
59469;DHT22;45277;52.768;18.262;2022-07-29T04:11:32;12.40;99.90
59469;DHT22;45277;52.768;18.262;2022-07-29T04:13:04;12.50;99.90
59469;DHT22;45277;52.768;18.262;2022-07-29T04:14:36;12.50;99.90
59469;DHT22;45277;52.768;18.262;2022-07-29T04:16:07;12.60;99.90
59469;DHT22;45277;52.768;18.262;2022-07-29T04:17:40;12.60;99.90
59469;DHT22;45277;52.768;18.262;2022-07-29T04:19:11;12.70;99.90
59469;DHT22;45277;52.768;18.262;2022-07-29T04:20:43;12.70;99.90
59469;DHT22;45277;52.768;18.262;2022-07-29T04:22:15;12.70;99.90
59469;DHT22;45277;52.768;18.262;2022-07-29T04:23:48;12.80;99.90
59469;DHT22;45277;52.768;18.262;2022-07-29T04:25:22;12.80;99.90
59469;DHT22;45277;52.768;18.262;2022-07-29T04:26:54;12.90;99.90
59469;DHT22;45277;52.768;18.262;2022-07-29T04:28:25;12.90;99.90
59469;DHT22;45277;52.768;18.262;2022-07-29T04:29:59;13.00;99.90
59469;DHT22;45277;52.768;18.262;2022-07-29T04:31:31;13.00;99.90
59469;DHT22;45277;52.768;18.262;2022-07-29T04:33:04;13.00;99.90
59469;DHT22;45277;52.768;18.262;2022-07-29T04:34:36;13.00;99.90
59469;DHT22;45277;52.768;18.262;2022-07-29T04:36:08;13.00;99.90
59469;DHT22;45277;52.768;18.262;2022-07-29T04:37:39;13.10;99.90
59469;DHT22;45277;52.768;18.262;2022-07-29T04:39:11;13.10;99.90
59469;DHT22;45277;52.768;18.262;2022-07-29T04:40:43;13.20;99.90
59469;DHT22;45277;52.768;18.262;2022-07-29T04:42:14;13.20;99.90
59469;DHT22;45277;52.768;18.262;2022-07-29T04:43:47;13.30;99.90
59469;DHT22;45277;52.768;18.262;2022-07-29T04:45:24;13.40;99.90
59469;DHT22;45277;52.768;18.262;2022-07-29T04:46:57;13.50;99.90
59469;DHT22;45277;52.768;18.262;2022-07-29T04:48:28;13.50;99.90
59469;DHT22;45277;52.768;18.262;2022-07-29T04:50:00;13.60;99.90
59469;DHT22;45277;52.768;18.262;2022-07-29T04:51:31;13.70;99.90
59469;DHT22;45277;52.768;18.262;2022-07-29T04:53:04;13.70;99.90
59469;DHT22;45277;52.768;18.262;2022-07-29T04:54:41;13.80;99.90
59469;DHT22;45277;52.768;18.262;2022-07-29T04:56:13;13.90;99.90
59469;DHT22;45277;52.768;18.262;2022-07-29T04:57:44;13.90;99.90
59469;DHT22;45277;52.768;18.262;2022-07-29T04:59:16;14.00;99.90
59469;DHT22;45277;52.768;18.262;2022-07-29T05:00:47;14.00;99.90
59469;DHT22;45277;52.768;18.262;2022-07-29T05:02:24;14.10;99.90
59469;DHT22;45277;52.768;18.262;2022-07-29T05:03:56;14.20;99.90
59469;DHT22;45277;52.768;18.262;2022-07-29T05:05:28;14.20;99.90
59469;DHT22;45277;52.768;18.262;2022-07-29T05:07:06;14.30;99.90
59469;DHT22;45277;52.768;18.262;2022-07-29T05:08:39;14.40;99.90
59469;DHT22;45277;52.768;18.262;2022-07-29T05:10:10;14.50;99.90
59469;DHT22;45277;52.768;18.262;2022-07-29T05:11:43;14.50;99.90
59469;DHT22;45277;52.768;18.262;2022-07-29T05:13:14;14.60;99.90
59469;DHT22;45277;52.768;18.262;2022-07-29T05:14:49;14.70;99.90
59469;DHT22;45277;52.768;18.262;2022-07-29T05:16:20;14.80;99.90
59469;DHT22;45277;52.768;18.262;2022-07-29T05:17:54;14.90;99.90
59469;DHT22;45277;52.768;18.262;2022-07-29T05:19:26;15.00;99.90
59469;DHT22;45277;52.768;18.262;2022-07-29T05:20:59;15.10;99.90
59469;DHT22;45277;52.768;18.262;2022-07-29T05:22:32;15.10;99.90
59469;DHT22;45277;52.768;18.262;2022-07-29T05:24:14;15.20;99.90
59469;DHT22;45277;52.768;18.262;2022-07-29T05:25:46;15.30;99.90
59469;DHT22;45277;52.768;18.262;2022-07-29T05:27:26;15.40;99.90
59469;DHT22;45277;52.768;18.262;2022-07-29T05:28:57;15.60;99.90
59469;DHT22;45277;52.768;18.262;2022-07-29T05:30:35;15.60;99.90
59469;DHT22;45277;52.768;18.262;2022-07-29T05:32:07;15.80;99.90
59469;DHT22;45277;52.768;18.262;2022-07-29T05:33:41;16.00;99.90
59469;DHT22;45277;52.768;18.262;2022-07-29T05:35:14;16.10;99.90
59469;DHT22;45277;52.768;18.262;2022-07-29T05:36:45;16.20;99.90
59469;DHT22;45277;52.768;18.262;2022-07-29T05:38:17;16.40;99.90
59469;DHT22;45277;52.768;18.262;2022-07-29T05:39:55;16.50;99.90
59469;DHT22;45277;52.768;18.262;2022-07-29T05:41:27;16.50;99.90
59469;DHT22;45277;52.768;18.262;2022-07-29T05:43:00;16.60;99.90
59469;DHT22;45277;52.768;18.262;2022-07-29T05:44:36;16.70;99.90
59469;DHT22;45277;52.768;18.262;2022-07-29T05:46:09;16.80;99.90
59469;DHT22;45277;52.768;18.262;2022-07-29T05:47:41;16.90;99.90
59469;DHT22;45277;52.768;18.262;2022-07-29T05:49:19;17.00;99.90
59469;DHT22;45277;52.768;18.262;2022-07-29T05:50:51;17.10;99.90
59469;DHT22;45277;52.768;18.262;2022-07-29T05:52:22;17.20;99.90
59469;DHT22;45277;52.768;18.262;2022-07-29T05:53:53;17.20;99.90
59469;DHT22;45277;52.768;18.262;2022-07-29T05:55:25;17.30;99.90
59469;DHT22;45277;52.768;18.262;2022-07-29T05:56:57;17.40;99.90
59469;DHT22;45277;52.768;18.262;2022-07-29T05:58:28;17.50;99.90
59469;DHT22;45277;52.768;18.262;2022-07-29T05:59:59;17.60;99.90
59469;DHT22;45277;52.768;18.262;2022-07-29T06:01:31;17.60;99.90
59469;DHT22;45277;52.768;18.262;2022-07-29T06:03:02;17.70;99.90
59469;DHT22;45277;52.768;18.262;2022-07-29T06:04:34;17.80;99.90
59469;DHT22;45277;52.768;18.262;2022-07-29T06:06:05;17.80;99.90
59469;DHT22;45277;52.768;18.262;2022-07-29T06:07:38;17.80;99.90
59469;DHT22;45277;52.768;18.262;2022-07-29T06:09:09;17.90;99.90
59469;DHT22;45277;52.768;18.262;2022-07-29T06:10:41;17.90;99.90
59469;DHT22;45277;52.768;18.262;2022-07-29T06:12:12;18.00;99.90
59469;DHT22;45277;52.768;18.262;2022-07-29T06:13:43;18.10;99.90
59469;DHT22;45277;52.768;18.262;2022-07-29T06:15:21;18.30;99.90
59469;DHT22;45277;52.768;18.262;2022-07-29T06:16:52;18.40;99.90
59469;DHT22;45277;52.768;18.262;2022-07-29T06:18:24;18.40;99.90
59469;DHT22;45277;52.768;18.262;2022-07-29T06:19:56;18.50;99.90
59469;DHT22;45277;52.768;18.262;2022-07-29T06:21:29;18.60;99.90
59469;DHT22;45277;52.768;18.262;2022-07-29T06:23:00;18.70;99.90
59469;DHT22;45277;52.768;18.262;2022-07-29T06:24:33;18.70;99.90
59469;DHT22;45277;52.768;18.262;2022-07-29T06:26:05;18.80;99.90
59469;DHT22;45277;52.768;18.262;2022-07-29T06:27:36;18.90;99.90
59469;DHT22;45277;52.768;18.262;2022-07-29T06:29:10;19.00;99.90
59469;DHT22;45277;52.768;18.262;2022-07-29T06:30:42;19.10;99.90
59469;DHT22;45277;52.768;18.262;2022-07-29T06:32:16;19.20;99.90
59469;DHT22;45277;52.768;18.262;2022-07-29T06:33:47;19.20;99.90
59469;DHT22;45277;52.768;18.262;2022-07-29T06:35:19;19.20;99.90
59469;DHT22;45277;52.768;18.262;2022-07-29T06:36:50;19.20;99.90
59469;DHT22;45277;52.768;18.262;2022-07-29T06:38:23;19.30;99.90
59469;DHT22;45277;52.768;18.262;2022-07-29T06:39:55;19.40;99.90
59469;DHT22;45277;52.768;18.262;2022-07-29T06:41:49;19.50;99.90
59469;DHT22;45277;52.768;18.262;2022-07-29T06:43:21;19.50;99.90
59469;DHT22;45277;52.768;18.262;2022-07-29T06:44:53;19.60;99.90
59469;DHT22;45277;52.768;18.262;2022-07-29T06:46:25;19.70;99.90
59469;DHT22;45277;52.768;18.262;2022-07-29T06:47:56;19.70;99.90
59469;DHT22;45277;52.768;18.262;2022-07-29T06:49:28;19.80;99.90
59469;DHT22;45277;52.768;18.262;2022-07-29T06:51:00;19.80;99.90
59469;DHT22;45277;52.768;18.262;2022-07-29T06:52:32;19.90;99.90
59469;DHT22;45277;52.768;18.262;2022-07-29T06:54:04;19.90;99.90
59469;DHT22;45277;52.768;18.262;2022-07-29T06:55:37;20.00;99.90
59469;DHT22;45277;52.768;18.262;2022-07-29T06:57:09;20.00;99.90
59469;DHT22;45277;52.768;18.262;2022-07-29T06:58:40;20.10;99.90
59469;DHT22;45277;52.768;18.262;2022-07-29T07:00:12;20.10;99.90
59469;DHT22;45277;52.768;18.262;2022-07-29T07:01:44;20.10;99.90
59469;DHT22;45277;52.768;18.262;2022-07-29T07:03:17;20.10;99.90
59469;DHT22;45277;52.768;18.262;2022-07-29T07:04:51;20.10;99.90
59469;DHT22;45277;52.768;18.262;2022-07-29T07:06:25;20.20;99.90
59469;DHT22;45277;52.768;18.262;2022-07-29T07:07:59;20.30;99.90
59469;DHT22;45277;52.768;18.262;2022-07-29T07:09:31;20.30;99.90
59469;DHT22;45277;52.768;18.262;2022-07-29T07:11:04;20.40;99.90
59469;DHT22;45277;52.768;18.262;2022-07-29T07:12:36;20.50;99.90
59469;DHT22;45277;52.768;18.262;2022-07-29T07:14:08;20.60;99.90
59469;DHT22;45277;52.768;18.262;2022-07-29T07:15:40;20.70;99.90
59469;DHT22;45277;52.768;18.262;2022-07-29T07:17:21;20.90;99.90
59469;DHT22;45277;52.768;18.262;2022-07-29T07:18:54;21.00;99.90
59469;DHT22;45277;52.768;18.262;2022-07-29T07:20:27;21.00;99.90
59469;DHT22;45277;52.768;18.262;2022-07-29T07:22:00;21.10;99.90
59469;DHT22;45277;52.768;18.262;2022-07-29T07:23:31;21.10;99.90
59469;DHT22;45277;52.768;18.262;2022-07-29T07:25:05;21.10;99.90
59469;DHT22;45277;52.768;18.262;2022-07-29T07:26:37;21.10;99.90
59469;DHT22;45277;52.768;18.262;2022-07-29T07:28:20;21.10;99.90
59469;DHT22;45277;52.768;18.262;2022-07-29T07:29:51;21.10;99.90
59469;DHT22;45277;52.768;18.262;2022-07-29T07:31:22;21.10;99.90
59469;DHT22;45277;52.768;18.262;2022-07-29T07:32:55;21.20;99.90
59469;DHT22;45277;52.768;18.262;2022-07-29T07:34:26;21.30;99.90
59469;DHT22;45277;52.768;18.262;2022-07-29T07:35:58;21.30;99.90
59469;DHT22;45277;52.768;18.262;2022-07-29T07:37:30;21.30;99.90
59469;DHT22;45277;52.768;18.262;2022-07-29T07:39:02;21.40;99.90
59469;DHT22;45277;52.768;18.262;2022-07-29T07:40:44;21.50;99.90
59469;DHT22;45277;52.768;18.262;2022-07-29T07:42:20;21.60;99.90
59469;DHT22;45277;52.768;18.262;2022-07-29T07:43:52;21.70;99.90
59469;DHT22;45277;52.768;18.262;2022-07-29T07:45:24;21.80;99.90
59469;DHT22;45277;52.768;18.262;2022-07-29T07:47:06;22.00;99.90
59469;DHT22;45277;52.768;18.262;2022-07-29T07:48:38;22.20;98.70
59469;DHT22;45277;52.768;18.262;2022-07-29T07:50:11;22.30;95.60
59469;DHT22;45277;52.768;18.262;2022-07-29T07:51:43;22.20;97.00
59469;DHT22;45277;52.768;18.262;2022-07-29T07:53:28;22.20;96.00
59469;DHT22;45277;52.768;18.262;2022-07-29T07:55:01;22.30;95.80
59469;DHT22;45277;52.768;18.262;2022-07-29T07:56:34;22.30;95.50
59469;DHT22;45277;52.768;18.262;2022-07-29T07:58:07;22.30;96.20
59469;DHT22;45277;52.768;18.262;2022-07-29T07:59:41;22.40;96.40
59469;DHT22;45277;52.768;18.262;2022-07-29T08:01:21;22.60;93.90
59469;DHT22;45277;52.768;18.262;2022-07-29T08:02:53;22.80;92.20
59469;DHT22;45277;52.768;18.262;2022-07-29T08:04:26;23.00;91.00
59469;DHT22;45277;52.768;18.262;2022-07-29T08:06:00;23.20;93.20
59469;DHT22;45277;52.768;18.262;2022-07-29T08:07:31;23.40;90.10
59469;DHT22;45277;52.768;18.262;2022-07-29T08:09:03;23.50;86.50
59469;DHT22;45277;52.768;18.262;2022-07-29T08:10:36;23.40;79.30
59469;DHT22;45277;52.768;18.262;2022-07-29T08:12:32;23.50;83.80
59469;DHT22;45277;52.768;18.262;2022-07-29T08:14:03;23.70;70.30
59469;DHT22;45277;52.768;18.262;2022-07-29T08:15:39;23.60;72.80
59469;DHT22;45277;52.768;18.262;2022-07-29T08:17:14;23.60;78.30
59469;DHT22;45277;52.768;18.262;2022-07-29T08:18:47;23.80;77.50
59469;DHT22;45277;52.768;18.262;2022-07-29T08:20:19;23.90;75.20
59469;DHT22;45277;52.768;18.262;2022-07-29T08:21:53;24.00;64.50
59469;DHT22;45277;52.768;18.262;2022-07-29T08:23:25;24.10;59.80
59469;DHT22;45277;52.768;18.262;2022-07-29T08:24:58;24.30;62.40
59469;DHT22;45277;52.768;18.262;2022-07-29T08:26:30;24.60;58.30
59469;DHT22;45277;52.768;18.262;2022-07-29T08:28:04;24.60;56.40
59469;DHT22;45277;52.768;18.262;2022-07-29T08:29:36;24.70;54.50
59469;DHT22;45277;52.768;18.262;2022-07-29T08:31:08;24.70;53.30
59469;DHT22;45277;52.768;18.262;2022-07-29T08:32:39;24.60;53.50
59469;DHT22;45277;52.768;18.262;2022-07-29T08:34:11;24.60;50.60
59469;DHT22;45277;52.768;18.262;2022-07-29T08:35:42;24.50;51.00
59469;DHT22;45277;52.768;18.262;2022-07-29T08:37:21;24.40;51.10
59469;DHT22;45277;52.768;18.262;2022-07-29T08:38:52;24.20;55.10
59469;DHT22;45277;52.768;18.262;2022-07-29T08:40:25;24.30;53.70
59469;DHT22;45277;52.768;18.262;2022-07-29T08:41:56;24.50;53.60
59469;DHT22;45277;52.768;18.262;2022-07-29T08:43:29;24.70;49.10
59469;DHT22;45277;52.768;18.262;2022-07-29T08:45:00;24.80;48.00
59469;DHT22;45277;52.768;18.262;2022-07-29T08:46:33;24.80;47.60
59469;DHT22;45277;52.768;18.262;2022-07-29T08:48:05;24.80;47.10
59469;DHT22;45277;52.768;18.262;2022-07-29T08:49:37;24.70;45.50
59469;DHT22;45277;52.768;18.262;2022-07-29T08:51:18;24.70;45.10
59469;DHT22;45277;52.768;18.262;2022-07-29T08:52:50;24.80;47.50
59469;DHT22;45277;52.768;18.262;2022-07-29T08:54:23;25.10;44.30
59469;DHT22;45277;52.768;18.262;2022-07-29T08:55:55;25.20;46.00
59469;DHT22;45277;52.768;18.262;2022-07-29T08:57:29;25.30;43.60
59469;DHT22;45277;52.768;18.262;2022-07-29T08:59:05;25.30;43.20
59469;DHT22;45277;52.768;18.262;2022-07-29T09:00:45;25.50;40.30
59469;DHT22;45277;52.768;18.262;2022-07-29T09:02:21;25.40;41.30
59469;DHT22;45277;52.768;18.262;2022-07-29T09:03:56;25.60;41.00
59469;DHT22;45277;52.768;18.262;2022-07-29T09:05:30;25.70;40.70
59469;DHT22;45277;52.768;18.262;2022-07-29T09:07:05;25.90;39.40
59469;DHT22;45277;52.768;18.262;2022-07-29T09:08:38;25.80;37.70
59469;DHT22;45277;52.768;18.262;2022-07-29T09:10:10;25.80;36.50
59469;DHT22;45277;52.768;18.262;2022-07-29T09:11:42;25.90;34.60
59469;DHT22;45277;52.768;18.262;2022-07-29T09:13:13;25.90;34.00
59469;DHT22;45277;52.768;18.262;2022-07-29T09:14:45;26.00;34.50
59469;DHT22;45277;52.768;18.262;2022-07-29T09:16:17;26.00;35.70
59469;DHT22;45277;52.768;18.262;2022-07-29T09:17:50;25.80;36.00
59469;DHT22;45277;52.768;18.262;2022-07-29T09:19:30;25.80;33.70
59469;DHT22;45277;52.768;18.262;2022-07-29T09:21:02;25.80;35.20
59469;DHT22;45277;52.768;18.262;2022-07-29T09:22:53;25.80;33.60
59469;DHT22;45277;52.768;18.262;2022-07-29T09:24:43;25.90;32.80
59469;DHT22;45277;52.768;18.262;2022-07-29T09:26:15;25.80;31.60
59469;DHT22;45277;52.768;18.262;2022-07-29T09:27:50;25.90;33.70
59469;DHT22;45277;52.768;18.262;2022-07-29T09:29:23;26.00;33.00
59469;DHT22;45277;52.768;18.262;2022-07-29T09:30:57;25.80;33.10
59469;DHT22;45277;52.768;18.262;2022-07-29T09:32:55;25.90;33.60
59469;DHT22;45277;52.768;18.262;2022-07-29T09:34:29;25.90;31.60
59469;DHT22;45277;52.768;18.262;2022-07-29T09:36:06;26.00;31.20
59469;DHT22;45277;52.768;18.262;2022-07-29T09:37:38;25.90;30.70
59469;DHT22;45277;52.768;18.262;2022-07-29T09:39:09;25.80;30.80
59469;DHT22;45277;52.768;18.262;2022-07-29T09:40:56;25.60;31.10
59469;DHT22;45277;52.768;18.262;2022-07-29T09:42:29;25.60;31.40
59469;DHT22;45277;52.768;18.262;2022-07-29T09:44:04;25.40;31.50
59469;DHT22;45277;52.768;18.262;2022-07-29T09:45:37;25.40;30.50
59469;DHT22;45277;52.768;18.262;2022-07-29T09:47:09;25.50;31.10
59469;DHT22;45277;52.768;18.262;2022-07-29T09:48:41;25.40;32.10
59469;DHT22;45277;52.768;18.262;2022-07-29T09:50:13;25.50;32.00
59469;DHT22;45277;52.768;18.262;2022-07-29T09:51:45;25.30;32.40
59469;DHT22;45277;52.768;18.262;2022-07-29T09:53:34;25.40;31.00
59469;DHT22;45277;52.768;18.262;2022-07-29T09:55:07;25.50;30.20
59469;DHT22;45277;52.768;18.262;2022-07-29T09:56:40;25.60;30.10
59469;DHT22;45277;52.768;18.262;2022-07-29T09:58:27;25.70;30.10